Time;durP1;ratioP1;P1;durP2;ratioP2;P2;SDS_P1;SDS_P2;PMS_P1;PMS_P2;Temp;Humidity;BMP_temperature;BMP_pressure;BME280_temperature;BME280_humidity;BME280_pressure;Samples;Min_cycle;Max_cycle;Signal;HPM_P1;HPM_P2
2023/02/21 02:15:47;;;;;;;4.57;2.75;;;;;;;16.69;48.68;100072.97;5113799;28;20052;-72
2023/02/21 02:18:52;;;;;;;4.78;3.00;;;;;;;16.67;48.81;100070.41;5113844;28;20052;-72
2023/02/21 02:21:49;;;;;;;5.53;2.95;;;;;;;16.64;48.60;100059.06;5108962;28;20412;-72
2023/02/21 02:24:53;;;;;;;5.00;2.80;;;;;;;16.63;48.63;100063.59;5113637;28;20385;-72
2023/02/21 02:27:55;;;;;;;4.88;2.58;;;;;;;16.62;48.41;100059.19;5113584;28;20036;-71
2023/02/21 02:30:59;;;;;;;5.20;2.97;;;;;;;16.58;48.40;100050.53;5113582;28;20499;-72
2023/02/21 02:34:09;;;;;;;6.45;2.83;;;;;;;16.59;48.66;100063.00;5113490;28;20050;-72
2023/02/21 02:36:43;;;;;;;4.63;2.58;;;;;;;16.58;48.60;100063.97;5113202;28;20134;-72
2023/02/21 02:39:23;;;;;;;4.82;2.63;;;;;;;16.57;48.45;100059.59;5113585;28;20048;-72
2023/02/21 02:42:02;;;;;;;5.15;2.78;;;;;;;16.55;48.91;100053.50;5113278;28;20051;-72
2023/02/21 02:44:39;;;;;;;5.05;2.60;;;;;;;16.54;48.77;100046.41;5113176;28;20047;-72
2023/02/21 02:47:11;;;;;;;5.10;2.70;;;;;;;16.52;49.05;100040.31;5113271;28;20043;-73
2023/02/21 02:49:44;;;;;;;5.35;2.95;;;;;;;16.53;49.16;100047.41;5112449;28;20050;-72
2023/02/21 02:52:14;;;;;;;4.33;2.57;;;;;;;16.50;49.05;100039.59;5113303;28;20047;-73
2023/02/21 02:54:42;;;;;;;4.95;2.60;;;;;;;16.50;49.11;100042.28;5113048;28;20403;-71
2023/02/21 02:57:11;;;;;;;5.20;2.90;;;;;;;16.49;49.21;100048.63;5113194;28;20100;-72
2023/02/21 02:59:44;;;;;;;4.70;2.20;;;;;;;16.48;49.25;100041.53;5112906;28;20126;-72
2023/02/21 03:02:37;;;;;;;4.40;2.60;;;;;;;16.47;49.41;100036.31;5112986;28;20054;-72
2023/02/21 03:05:21;;;;;;;4.50;2.77;;;;;;;16.45;49.01;100044.53;5112737;28;20275;-72
2023/02/21 03:07:59;;;;;;;4.72;2.45;;;;;;;16.45;49.05;100046.38;5112845;28;20047;-72
2023/02/21 03:10:38;;;;;;;4.95;2.75;;;;;;;16.43;48.97;100040.25;5112870;28;20047;-72
2023/02/21 03:13:13;;;;;;;6.03;2.30;;;;;;;16.41;49.19;100048.47;5112935;28;20500;-72
2023/02/21 03:15:49;;;;;;;4.18;2.38;;;;;;;16.41;49.04;100043.09;5116773;28;20054;-72
2023/02/21 03:18:26;;;;;;;5.03;2.50;;;;;;;16.40;49.49;100049.44;5119679;28;20053;-71
2023/02/21 03:20:58;;;;;;;4.53;2.60;;;;;;;16.38;49.22;100043.34;5114546;28;20050;-71
2023/02/21 03:23:30;;;;;;;4.65;2.50;;;;;;;16.38;49.17;100058.66;5113017;28;20047;-72
2023/02/21 03:26:01;;;;;;;4.47;2.40;;;;;;;16.33;49.13;100040.22;5112809;28;20120;-72
2023/02/21 03:28:32;;;;;;;4.18;2.53;;;;;;;16.35;49.56;100051.69;5113084;28;20050;-72
2023/02/21 03:31:03;;;;;;;5.03;2.58;;;;;;;16.35;49.50;100051.69;5112806;28;20047;-72
2023/02/21 03:33:32;;;;;;;4.93;2.70;;;;;;;16.34;49.49;100047.31;5112746;28;20044;-72
2023/02/21 03:36:00;;;;;;;4.55;2.30;;;;;;;16.32;49.44;100051.97;5112268;28;20040;-72
2023/02/21 03:38:32;;;;;;;5.05;2.55;;;;;;;16.31;49.37;100052.97;5112432;28;20077;-72
2023/02/21 03:41:00;;;;;;;4.75;2.65;;;;;;;16.31;49.08;100061.03;5112551;28;20047;-72
2023/02/21 03:43:28;;;;;;;3.78;2.38;;;;;;;16.30;49.64;100060.16;5112313;28;20477;-72
2023/02/21 03:45:56;;;;;;;5.05;2.40;;;;;;;16.30;49.39;100053.91;5112216;28;20055;-72
2023/02/21 03:48:24;;;;;;;4.43;2.20;;;;;;;16.29;49.74;100060.28;5112287;28;20123;-72
2023/02/21 03:50:59;;;;;;;3.55;2.10;;;;;;;16.25;49.18;100048.09;5112168;28;20044;-72
2023/02/21 03:53:27;;;;;;;5.90;2.67;;;;;;;16.25;49.72;100057.03;5112318;28;20520;-71
2023/02/21 03:55:57;;;;;;;3.90;2.10;;;;;;;16.26;49.65;100052.50;5112198;28;20062;-71
2023/02/21 03:58:25;;;;;;;4.25;2.30;;;;;;;16.23;49.38;100050.09;5112203;28;20129;-72
2023/02/21 04:00:56;;;;;;;4.50;2.38;;;;;;;16.21;49.41;100052.03;5113994;28;20041;-72
2023/02/21 04:03:25;;;;;;;4.30;2.33;;;;;;;16.20;49.49;100053.03;5116606;28;20406;-71
2023/02/21 04:05:53;;;;;;;4.32;2.10;;;;;;;16.21;49.66;100049.34;5116368;28;20134;-71
2023/02/21 04:08:22;;;;;;;4.57;2.22;;;;;;;16.21;49.73;100052.03;5116418;27;20445;-71
2023/02/21 04:10:52;;;;;;;3.17;2.17;;;;;;;16.19;49.93;100056.69;5116173;28;20480;-71
2023/02/21 04:13:23;;;;;;;3.80;2.17;;;;;;;16.19;49.61;100070.16;5116152;28;20374;-71
2023/02/21 04:15:51;;;;;;;4.95;2.60;;;;;;;16.18;49.78;100063.91;5116194;28;20442;-72
2023/02/21 04:18:19;;;;;;;3.40;2.08;;;;;;;16.12;49.72;100058.25;5116025;28;20055;-71
2023/02/21 04:20:48;;;;;;;3.67;2.13;;;;;;;16.16;49.68;100059.66;5116247;28;20062;-72
2023/02/21 04:23:17;;;;;;;4.10;2.20;;;;;;;16.15;49.92;100057.97;5115585;28;20039;-71
2023/02/21 04:25:45;;;;;;;3.70;2.20;;;;;;;16.14;50.11;100067.88;5115900;28;20067;-71
2023/02/21 04:28:14;;;;;;;3.60;2.30;;;;;;;16.13;49.87;100054.56;5115959;28;20043;-70
2023/02/21 04:30:43;;;;;;;5.07;2.40;;;;;;;16.10;49.56;100055.66;5115938;28;20040;-73
2023/02/21 04:33:12;;;;;;;4.97;2.38;;;;;;;16.12;49.66;100050.16;5115830;28;20082;-72
2023/02/21 04:35:40;;;;;;;4.60;2.42;;;;;;;16.12;50.02;100055.53;5115659;28;20400;-72
2023/02/21 04:38:08;;;;;;;4.40;2.33;;;;;;;16.10;50.17;100050.28;5115622;28;20390;-73
2023/02/21 04:40:36;;;;;;;4.15;2.45;;;;;;;16.10;50.12;100054.81;5115646;28;20055;-72
2023/02/21 04:43:04;;;;;;;5.32;2.67;;;;;;;16.09;50.01;100053.09;5115572;28;20031;-72
2023/02/21 04:45:32;;;;;;;4.47;2.35;;;;;;;16.07;50.29;100049.69;5115456;28;20107;-72
2023/02/21 04:48:02;;;;;;;4.72;2.28;;;;;;;16.07;50.25;100047.00;5115636;28;20067;-71
2023/02/21 04:50:31;;;;;;;3.90;2.22;;;;;;;16.07;50.07;100061.31;5115341;28;20050;-72
2023/02/21 04:52:59;;;;;;;4.30;2.20;;;;;;;16.05;50.15;100054.34;5115455;28;20609;-71
2023/02/21 04:55:28;;;;;;;3.83;2.33;;;;;;;16.06;50.07;100058.75;5115423;28;20047;-72
2023/02/21 04:57:56;;;;;;;4.03;2.00;;;;;;;16.03;50.18;100060.72;5115518;28;20056;-71
2023/02/21 05:00:24;;;;;;;3.92;2.38;;;;;;;16.05;50.26;100057.06;5115390;28;20446;-71
2023/02/21 05:02:52;;;;;;;4.07;2.15;;;;;;;16.03;50.34;100060.72;5115474;28;20058;-71
2023/02/21 05:05:22;;;;;;;3.85;1.90;;;;;;;16.03;50.13;100062.56;5115203;28;20101;-71
2023/02/21 05:07:50;;;;;;;6.13;2.30;;;;;;;16.02;50.27;100056.34;5115119;28;20044;-72
2023/02/21 05:10:19;;;;;;;4.72;2.17;;;;;;;16.01;50.21;100057.28;5115070;28;20039;-71
2023/02/21 05:12:47;;;;;;;4.07;2.15;;;;;;;15.99;50.22;100059.25;5114094;28;20054;-72
2023/02/21 05:15:15;;;;;;;4.35;2.40;;;;;;;15.91;50.37;100051.00;5115145;28;20055;-72
2023/02/21 05:17:45;;;;;;;3.60;2.30;;;;;;;16.00;50.35;100060.97;5115089;28;20071;-72
2023/02/21 05:20:13;;;;;;;3.38;2.03;;;;;;;15.98;50.36;100052.19;5102316;28;20400;-71
2023/02/21 05:22:43;;;;;;;4.00;2.05;;;;;;;15.97;50.41;100057.69;5094505;28;20044;-72
2023/02/21 05:25:15;;;;;;;4.75;2.20;;;;;;;15.99;50.36;100053.03;5094337;28;20044;-71
2023/02/21 05:27:44;;;;;;;5.30;2.17;;;;;;;15.98;50.40;100054.03;5094320;28;20050;-72
2023/02/21 05:30:15;;;;;;;3.85;2.30;;;;;;;15.92;50.26;100039.28;5094555;28;20074;-71
2023/02/21 05:32:44;;;;;;;4.50;2.28;;;;;;;15.95;50.32;100054.28;5094333;28;20040;-71
2023/02/21 05:35:15;;;;;;;4.07;2.20;;;;;;;15.94;50.23;100055.28;5094218;28;20404;-71
2023/02/21 05:37:44;;;;;;;3.80;2.22;;;;;;;15.94;50.40;100056.13;5093922;28;20462;-71
2023/02/21 05:40:17;;;;;;;3.92;1.92;;;;;;;15.95;50.15;100055.16;5094101;28;20051;-72
2023/02/21 05:42:45;;;;;;;2.83;1.90;;;;;;;15.94;50.20;100045.38;5109935;28;20093;-72
2023/02/21 05:45:13;;;;;;;2.85;1.90;;;;;;;15.94;50.29;100039.16;5104953;28;20040;-72
2023/02/21 05:47:42;;;;;;;4.22;2.22;;;;;;;15.93;50.39;100051.75;5093855;28;20055;-72
2023/02/21 05:50:10;;;;;;;3.47;1.95;;;;;;;15.91;50.43;100051.00;5093717;28;20040;-70
2023/02/21 05:52:39;;;;;;;3.30;1.92;;;;;;;15.92;50.49;100057.22;5105514;28;20079;-71
2023/02/21 05:55:11;;;;;;;3.38;2.05;;;;;;;15.95;50.58;100057.00;5093893;28;20509;-72
2023/02/21 05:57:39;;;;;;;3.50;1.95;;;;;;;15.98;50.59;100056.72;5093874;28;20050;-72
2023/02/21 06:00:15;;;;;;;4.70;2.35;;;;;;;16.09;50.67;100061.16;5093764;28;20569;-72
2023/02/21 06:02:43;;;;;;;3.55;1.90;;;;;;;16.22;50.71;100056.47;5097216;28;20044;-73
2023/02/21 06:05:12;;;;;;;3.33;1.95;;;;;;;16.29;50.52;100049.53;5102416;28;20501;-71
2023/02/21 06:07:41;;;;;;;3.10;1.80;;;;;;;16.42;50.38;100060.09;5093627;28;20052;-72
2023/02/21 06:10:10;;;;;;;2.95;1.70;;;;;;;16.51;50.28;100057.44;5093942;28;20048;-71
2023/02/21 06:12:41;;;;;;;3.63;1.90;;;;;;;16.62;50.13;100066.41;5093728;28;20048;-72
2023/02/21 06:15:11;;;;;;;3.55;1.70;;;;;;;16.66;50.27;100068.69;5093525;28;20447;-72
2023/02/21 06:17:40;;;;;;;3.63;2.05;;;;;;;16.72;49.98;100064.66;5093309;28;20044;-72
2023/02/21 06:20:15;;;;;;;3.53;2.00;;;;;;;16.76;49.92;100066.06;5093479;28;20040;-73
2023/02/21 06:22:43;;;;;;;4.18;1.83;;;;;;;16.76;49.85;100060.69;5093331;28;20119;-72
2023/02/21 06:25:13;;;;;;;3.72;1.88;;;;;;;16.80;49.84;100068.38;5105097;28;20108;-72
2023/02/21 06:27:42;;;;;;;3.42;1.80;;;;;;;16.82;49.87;100073.63;5113574;28;20096;-72
2023/02/21 06:30:14;;;;;;;3.92;1.83;;;;;;;16.80;49.81;100064.84;5103567;28;20044;-71
2023/02/21 06:32:43;;;;;;;4.22;2.00;;;;;;;16.84;50.09;100074.31;5113067;28;20098;-72
2023/02/21 06:35:11;;;;;;;3.75;2.00;;;;;;;16.83;50.40;100073.47;5112616;28;20044;-72
2023/02/21 06:37:39;;;;;;;3.40;1.83;;;;;;;16.84;51.42;100077.03;5112089;27;20523;-71
2023/02/21 06:40:07;;;;;;;5.47;2.30;;;;;;;16.85;51.76;100076.03;5112471;28;20377;-71
2023/02/21 06:42:37;;;;;;;4.53;2.10;;;;;;;16.84;52.07;100079.72;5112870;28;20074;-71
2023/02/21 06:45:06;;;;;;;4.70;2.13;;;;;;;16.84;52.14;100083.25;5112665;28;20035;-72
2023/02/21 06:47:35;;;;;;;5.85;2.42;;;;;;;16.84;52.39;100085.97;5112695;28;20039;-71
2023/02/21 06:50:07;;;;;;;4.38;2.20;;;;;;;16.84;52.27;100098.56;5112769;28;20116;-71
2023/02/21 06:52:37;;;;;;;5.05;1.70;;;;;;;16.83;52.35;100091.47;5112649;28;20040;-74
2023/02/21 06:55:06;;;;;;;4.90;2.03;;;;;;;16.83;52.28;100094.19;5112748;28;20061;-73
2023/02/21 06:57:35;;;;;;;6.10;2.10;;;;;;;16.82;52.40;100090.63;5112982;28;20043;-74
2023/02/21 07:00:10;;;;;;;3.70;1.98;;;;;;;16.81;52.52;100098.84;5112888;28;20070;-69
2023/02/21 07:02:41;;;;;;;4.78;1.88;;;;;;;16.80;52.68;100102.53;5112848;28;20105;-71
2023/02/21 07:05:09;;;;;;;4.20;1.90;;;;;;;16.80;52.68;100102.53;5114674;28;20047;-73
2023/02/21 07:07:37;;;;;;;4.85;2.35;;;;;;;16.79;52.73;100095.41;5112536;28;20052;-65
2023/02/21 07:10:09;;;;;;;5.43;2.47;;;;;;;16.79;53.03;100095.41;5112459;28;20488;-73
2023/02/21 07:12:40;;;;;;;6.22;2.50;;;;;;;16.80;53.20;100105.22;5112646;27;20075;-72
2023/02/21 07:15:10;;;;;;;6.05;2.75;;;;;;;16.81;53.35;100112.31;5112509;28;20131;-73
2023/02/21 07:17:38;;;;;;;5.32;2.00;;;;;;;16.81;53.21;100115.00;5112598;28;20043;-72
2023/02/21 07:20:08;;;;;;;6.55;2.33;;;;;;;16.81;53.55;100109.63;5112319;28;20046;-72
2023/02/21 07:22:37;;;;;;;5.35;2.17;;;;;;;16.81;53.42;100109.63;5112292;28;20043;-72
2023/02/21 07:25:06;;;;;;;5.50;2.30;;;;;;;16.81;53.09;100115.00;5112378;27;20696;-75
2023/02/21 07:27:34;;;;;;;4.63;2.00;;;;;;;16.79;53.19;100117.84;5112114;28;20123;-73
2023/02/21 07:30:04;;;;;;;5.22;2.10;;;;;;;16.79;52.82;100114.28;5112255;28;20054;-73
2023/02/21 07:32:34;;;;;;;4.13;2.13;;;;;;;16.78;52.65;100120.66;5112266;28;20096;-72
2023/02/21 07:35:02;;;;;;;5.88;2.20;;;;;;;16.78;52.36;100128.72;5111752;28;20454;-71
2023/02/21 07:37:30;;;;;;;6.70;2.00;;;;;;;16.77;52.53;100119.81;5111970;28;20449;-71
2023/02/21 07:39:59;;;;;;;6.55;2.30;;;;;;;16.77;52.40;100118.94;5112192;28;20050;-72
2023/02/21 07:42:27;;;;;;;3.35;1.90;;;;;;;16.76;52.29;100134.25;5112081;28;20048;-67
2023/02/21 07:44:56;;;;;;;7.53;2.08;;;;;;;16.76;52.20;100126.19;5112218;28;20044;-71
2023/02/21 07:47:25;;;;;;;6.28;1.95;;;;;;;16.76;52.64;100119.94;5111844;28;20097;-70
2023/02/21 07:49:55;;;;;;;4.28;1.70;;;;;;;16.75;52.00;100132.56;5111837;28;20052;-71
2023/02/21 07:52:23;;;;;;;6.28;2.20;;;;;;;16.73;52.25;100117.53;5112163;28;20048;-70
2023/02/21 07:54:53;;;;;;;6.28;1.90;;;;;;;16.72;51.90;100122.06;5111787;28;20538;-71
2023/02/21 07:57:25;;;;;;;7.50;1.95;;;;;;;16.68;51.76;100101.75;5111818;28;20043;-71
2023/02/21 07:59:53;;;;;;;8.15;1.90;;;;;;;16.70;52.07;100123.19;5111940;28;20044;-71
2023/02/21 08:02:22;;;;;;;4.10;1.73;;;;;;;16.70;52.28;100125.88;5112051;28;20071;-71
2023/02/21 08:04:50;;;;;;;5.10;2.22;;;;;;;16.66;51.94;100133.31;5111992;28;20418;-71
2023/02/21 08:07:20;;;;;;;3.75;1.75;;;;;;;16.67;52.07;100113.47;5111906;28;20039;-71
2023/02/21 08:09:50;;;;;;;4.95;2.10;;;;;;;16.66;52.18;100114.47;5112019;28;20325;-71
2023/02/21 08:12:18;;;;;;;7.35;1.90;;;;;;;16.66;51.40;100113.63;5111832;28;20071;-72
2023/02/21 08:14:46;;;;;;;4.70;2.10;;;;;;;16.63;51.89;100116.59;5111846;28;20066;-71
2023/02/21 08:17:14;;;;;;;5.95;2.05;;;;;;;16.64;51.56;100108.38;5111791;28;20047;-71
2023/02/21 08:19:43;;;;;;;5.05;1.77;;;;;;;16.63;51.42;100113.91;5111785;28;20492;-72
2023/02/21 08:22:11;;;;;;;5.35;2.03;;;;;;;16.62;51.35;100109.50;5111798;28;20109;-72
2023/02/21 08:24:41;;;;;;;5.13;1.77;;;;;;;16.62;51.80;100120.28;5111740;28;20150;-72
2023/02/21 08:27:09;;;;;;;4.22;1.75;;;;;;;16.63;51.86;100116.59;5111472;28;20082;-71
2023/02/21 08:29:39;;;;;;;6.35;1.75;;;;;;;16.59;51.28;100108.75;5111694;28;20526;-70
2023/02/21 08:32:07;;;;;;;4.88;1.75;;;;;;;16.60;51.64;100107.81;5111639;28;20063;-72
2023/02/21 08:34:35;;;;;;;4.10;1.70;;;;;;;16.59;51.34;100121.38;5111503;28;20412;-70
2023/02/21 08:37:13;;;;;;;5.72;1.70;;;;;;;16.56;50.93;100122.50;5111506;28;20509;-72
2023/02/21 08:39:44;;;;;;;3.85;1.50;;;;;;;16.55;50.83;100109.19;5111600;28;20043;-71
2023/02/21 08:42:13;;;;;;;3.10;1.48;;;;;;;16.56;50.63;100124.34;5111669;28;20079;-72
2023/02/21 08:44:44;;;;;;;5.20;1.52;;;;;;;16.56;51.29;100117.13;5111574;28;20054;-71
2023/02/21 08:47:12;;;;;;;2.70;1.35;;;;;;;16.55;51.55;100101.97;5112109;28;20043;-71
2023/02/21 08:49:41;;;;;;;4.47;1.70;;;;;;;16.55;51.79;100112.72;5115312;28;20481;-71
2023/02/21 08:52:09;;;;;;;3.47;1.60;;;;;;;16.55;51.26;100115.41;5115079;28;20144;-71
2023/02/21 08:54:37;;;;;;;4.22;1.50;;;;;;;16.56;51.16;100118.97;5115330;28;20055;-70
2023/02/21 08:57:07;;;;;;;4.70;1.80;;;;;;;16.55;51.00;100112.72;5115289;28;20075;-71
2023/02/21 08:59:37;;;;;;;3.42;1.50;;;;;;;16.51;51.42;100107.75;5115180;28;20043;-71
2023/02/21 09:02:11;;;;;;;3.15;1.42;;;;;;;16.54;51.64;100108.34;5115166;27;20067;-71
2023/02/21 09:04:39;;;;;;;2.97;1.60;;;;;;;16.54;51.24;100100.25;5115047;28;20039;-72
2023/02/21 09:07:07;;;;;;;4.47;1.33;;;;;;;16.50;50.66;100101.53;5115021;28;20396;-72
2023/02/21 09:09:37;;;;;;;3.85;1.60;;;;;;;16.51;50.89;100102.38;5114913;28;20492;-71
2023/02/21 09:12:08;;;;;;;3.60;1.70;;;;;;;16.51;50.73;100105.91;5115064;28;20043;-71
2023/02/21 09:14:36;;;;;;;3.35;1.70;;;;;;;16.51;50.82;100108.59;5114630;28;20500;-70
2023/02/21 09:17:06;;;;;;;4.15;1.63;;;;;;;16.50;50.35;100109.59;5114778;28;20138;-72
2023/02/21 09:19:35;;;;;;;2.22;1.38;;;;;;;16.49;50.37;100107.88;5114674;28;20104;-71
2023/02/21 09:22:03;;;;;;;2.30;1.40;;;;;;;16.51;51.22;100105.91;5115175;28;20054;-71
2023/02/21 09:24:31;;;;;;;2.42;1.50;;;;;;;16.50;51.05;100106.91;5114675;28;20387;-70
2023/02/21 09:27:01;;;;;;;4.05;1.42;;;;;;;16.52;50.95;100104.06;5114928;28;20051;-71
2023/02/21 09:29:33;;;;;;;2.60;1.40;;;;;;;16.54;51.54;100113.72;5114478;28;20127;-72
2023/02/21 09:32:13;;;;;;;;;;;;;;;16.55;51.46;100109.19;5114908;28;20123;-71
2023/02/21 09:34:41;;;;;;;3.40;1.48;;;;;;;16.55;51.30;100112.72;5114363;28;20018;-71
2023/02/21 09:37:09;;;;;;;2.92;1.33;;;;;;;16.56;50.91;100116.28;5114407;28;20074;-70
2023/02/21 09:39:39;;;;;;;3.78;1.65;;;;;;;16.58;51.35;100116.97;5114415;28;20044;-70
2023/02/21 09:42:10;;;;;;;4.07;1.65;;;;;;;16.59;51.47;100114.16;5114372;28;20071;-71
2023/02/21 09:44:40;;;;;;;3.25;1.33;;;;;;;16.59;51.45;100111.47;5114379;28;20065;-71
2023/02/21 09:47:13;;;;;;;2.92;1.58;;;;;;;16.61;51.42;100119.44;5114404;28;20444;-70
2023/02/21 09:49:45;;;;;;;3.38;1.50;;;;;;;16.65;51.22;100120.00;5114153;28;20044;-71
2023/02/21 09:52:23;;;;;;;3.35;1.60;;;;;;;16.66;51.32;100129.78;5114253;28;20081;-71
2023/02/21 09:54:56;;;;;;;3.63;1.58;;;;;;;16.66;51.21;100114.47;5113975;28;20040;-71
2023/02/21 09:57:24;;;;;;;4.38;1.60;;;;;;;16.69;51.19;100110.69;5113999;28;20047;-71
2023/02/21 09:59:55;;;;;;;3.33;1.67;;;;;;;16.73;51.15;100120.22;5113719;28;20100;-71
2023/02/21 10:02:38;;;;;;;2.47;1.38;;;;;;;16.76;50.94;100122.63;5113949;28;20492;-71
2023/02/21 10:05:12;;;;;;;;;;;;;;;16.78;50.89;100112.56;5114321;28;20062;-70
2023/02/21 10:07:47;;;;;;;4.70;1.55;;;;;;;16.81;50.81;100115.88;5113902;28;20387;-70
2023/02/21 10:10:20;;;;;;;3.20;1.38;;;;;;;16.84;50.94;100114.72;5113680;28;20477;-71
2023/02/21 10:12:56;;;;;;;2.58;1.38;;;;;;;16.90;50.69;100130.38;5113782;28;20085;-71
2023/02/21 10:15:38;;;;;;;2.97;1.55;;;;;;;16.95;50.74;100124.56;5113561;28;20050;-70
2023/02/21 10:18:15;;;;;;;3.42;1.40;;;;;;;16.96;50.57;100118.19;5113476;28;20059;-71
2023/02/21 10:20:51;;;;;;;4.32;1.58;;;;;;;17.02;50.59;100123.88;5113508;28;20055;-70
2023/02/21 10:23:27;;;;;;;3.85;1.80;;;;;;;17.09;50.22;100122.34;5113941;28;20044;-70
2023/02/21 10:26:01;;;;;;;2.25;1.42;;;;;;;17.15;50.50;100115.53;5113422;28;20047;-70
2023/02/21 10:28:29;;;;;;;;;;;;;;;17.21;50.18;100124.94;5113681;28;20050;-70
2023/02/21 10:31:03;;;;;;;2.35;1.23;;;;;;;17.26;49.87;100117.28;5113486;28;19920;-70
2023/02/21 10:33:35;;;;;;;2.85;1.42;;;;;;;17.29;49.95;100119.72;5113427;28;20047;-70
2023/02/21 10:36:11;;;;;;;2.90;1.23;;;;;;;17.31;50.17;100112.34;5113238;28;20078;-71
2023/02/21 10:38:42;;;;;;;3.05;1.50;;;;;;;17.29;50.31;100114.31;5113202;28;20050;-70
2023/02/21 10:41:12;;;;;;;3.50;1.55;;;;;;;17.32;50.27;100117.56;5113064;28;20100;-71
2023/02/21 10:43:45;;;;;;;2.45;1.30;;;;;;;17.33;50.33;100115.72;5113107;28;20075;-71
2023/02/21 10:46:23;;;;;;;3.17;1.40;;;;;;;17.34;50.29;100112.03;5113048;28;20044;-70
2023/02/21 10:48:53;;;;;;;2.28;1.27;;;;;;;17.35;50.43;100119.13;5113070;28;20044;-70
2023/02/21 10:51:30;;;;;;;1.70;1.10;;;;;;;17.39;50.46;100109.78;5113260;28;20063;-71
2023/02/21 10:54:20;;;;;;;1.85;1.25;;;;;;;17.41;50.39;100114.06;5113079;28;20502;-70
2023/02/21 10:56:49;;;;;;;2.92;1.25;;;;;;;17.45;50.50;100114.63;5113283;28;20108;-70
2023/02/21 10:59:23;;;;;;;3.03;1.40;;;;;;;17.45;50.72;100110.06;5112957;28;20122;-69
2023/02/21 11:01:54;;;;;;;3.28;1.20;;;;;;;17.52;50.42;100109.53;5114586;28;20050;-70
2023/02/21 11:04:33;;;;;;;2.47;1.23;;;;;;;17.56;50.34;100127.97;5114849;28;20225;-70
2023/02/21 11:07:06;;;;;;;2.72;1.27;;;;;;;17.54;50.42;100103.00;5114082;28;20074;-70
2023/02/21 11:09:40;;;;;;;2.42;1.30;;;;;;;17.62;50.43;100105.00;5112289;28;20075;-70
2023/02/21 11:12:21;;;;;;;2.95;1.40;;;;;;;17.65;50.09;100104.69;5112445;28;20047;-70
2023/02/21 11:15:05;;;;;;;;;;;;;;;17.68;50.13;100099.91;5113038;28;20126;-71
2023/02/21 11:17:35;;;;;;;1.83;1.20;;;;;;;17.72;50.05;100100.47;5112572;28;19965;-70
2023/02/21 11:20:18;;;;;;;3.45;1.70;;;;;;;17.74;49.90;100087.69;5112657;28;20040;-70
2023/02/21 11:22:48;;;;;;;1.58;1.10;;;;;;;17.79;49.84;100092.69;5112547;27;20051;-70
2023/02/21 11:25:22;;;;;;;2.88;1.38;;;;;;;17.81;49.93;100079.91;5111293;28;20105;-70
2023/02/21 11:28:02;;;;;;;3.60;1.27;;;;;;;17.88;50.27;100089.13;5112425;28;20040;-70
2023/02/21 11:30:34;;;;;;;2.47;1.42;;;;;;;17.91;49.90;100094.22;5112301;28;20569;-69
2023/02/21 11:33:05;;;;;;;2.42;1.10;;;;;;;17.94;49.95;100092.09;5112193;28;20147;-71
2023/02/21 11:35:37;;;;;;;2.00;1.30;;;;;;;17.98;49.78;100079.19;5112182;28;20047;-70
2023/02/21 11:38:08;;;;;;;3.00;1.23;;;;;;;18.00;49.93;100082.59;5112096;28;20557;-71
2023/02/21 11:40:42;;;;;;;1.63;1.20;;;;;;;18.03;49.65;100083.13;5112272;28;20043;-70
2023/02/21 11:43:17;;;;;;;2.50;1.25;;;;;;;18.08;49.54;100079.16;5112136;28;20049;-70
2023/02/21 11:45:58;;;;;;;2.47;1.25;;;;;;;18.11;49.72;100074.31;5111973;28;20039;-71
2023/02/21 11:48:33;;;;;;;3.13;1.08;;;;;;;18.14;49.88;100071.31;5112013;28;20488;-72
2023/02/21 11:51:14;;;;;;;1.80;1.02;;;;;;;18.18;49.58;100071.91;5111893;28;20105;-70
2023/02/21 11:53:44;;;;;;;2.50;1.25;;;;;;;18.20;49.60;100068.06;5111951;28;20050;-71
2023/02/21 11:56:24;;;;;;;2.92;1.20;;;;;;;18.24;49.53;100069.47;5111943;28;20040;-71
2023/02/21 11:59:01;;;;;;;2.40;1.30;;;;;;;18.27;49.74;100055.69;5112162;28;20044;-69
2023/02/21 12:01:38;;;;;;;2.92;1.30;;;;;;;18.31;49.55;100054.38;5112059;28;20092;-69
2023/02/21 12:04:26;;;;;;;1.77;1.15;;;;;;;18.36;49.60;100062.06;5111995;28;20468;-70
2023/02/21 12:07:01;;;;;;;2.50;1.20;;;;;;;18.38;49.56;100068.16;5111951;28;20501;-70
2023/02/21 12:09:38;;;;;;;4.00;1.40;;;;;;;18.41;49.29;100067.84;5112052;28;20047;-70
2023/02/21 12:12:31;;;;;;;2.13;1.10;;;;;;;18.45;49.15;100065.72;5112008;28;20225;-70
2023/02/21 12:15:22;;;;;;;1.40;0.90;;;;;;;18.47;49.20;100052.91;5111577;28;20054;-70
2023/02/21 12:18:00;;;;;;;3.00;1.17;;;;;;;18.52;49.04;100064.13;5111718;28;20585;-70
2023/02/21 12:21:04;;;;;;;2.28;1.17;;;;;;;18.53;49.40;100061.28;5111892;28;20055;-71
2023/02/21 12:23:40;;;;;;;2.33;1.10;;;;;;;18.56;49.17;100063.69;5115648;28;20051;-70
2023/02/21 12:26:27;;;;;;;2.22;1.17;;;;;;;18.61;49.02;100060.53;5115869;28;20071;-70
2023/02/21 12:29:15;;;;;;;2.65;1.40;;;;;;;18.62;49.21;100056.81;5115981;28;20131;-70
2023/02/21 12:31:59;;;;;;;3.83;1.42;;;;;;;18.65;49.00;100061.13;5116054;28;20071;-70
2023/02/21 12:34:38;;;;;;;2.08;1.33;;;;;;;18.66;48.83;100058.28;5115803;28;20549;-71
2023/02/21 12:37:21;;;;;;;2.45;1.10;;;;;;;18.69;48.48;100044.47;5115620;28;20532;-71
2023/02/21 12:40:13;;;;;;;2.10;1.05;;;;;;;18.72;48.80;100044.19;5115651;28;20075;-71
2023/02/21 12:42:58;;;;;;;1.92;1.40;;;;;;;18.73;48.60;100047.75;5115547;28;20062;-70
2023/02/21 12:45:41;;;;;;;1.77;1.00;;;;;;;18.75;48.41;100067.34;5115616;28;20051;-71
2023/02/21 12:48:18;;;;;;;2.35;1.10;;;;;;;18.78;48.63;100054.38;5115359;28;20043;-70
2023/02/21 12:50:52;;;;;;;2.45;1.17;;;;;;;18.79;48.48;100053.38;5114921;28;20104;-71
2023/02/21 12:53:26;;;;;;;1.77;1.20;;;;;;;18.83;48.21;100053.94;5114972;28;20077;-71
2023/02/21 12:56:06;;;;;;;2.17;1.10;;;;;;;18.86;48.53;100057.19;5115118;28;20096;-69
2023/02/21 12:58:40;;;;;;;1.92;1.10;;;;;;;18.86;48.24;100049.06;5114983;28;20043;-69
2023/02/21 13:01:14;;;;;;;2.95;1.20;;;;;;;18.88;48.27;100057.88;5114862;28;20065;-70
2023/02/21 13:03:54;;;;;;;2.30;1.20;;;;;;;18.87;48.36;100061.59;5114957;28;20533;-70
2023/02/21 13:06:28;;;;;;;2.92;1.33;;;;;;;18.90;48.44;100060.44;5115093;28;20070;-70
2023/02/21 13:09:12;;;;;;;2.30;1.17;;;;;;;18.88;48.50;100057.03;5114970;28;20044;-70
2023/02/21 13:11:47;;;;;;;1.80;1.00;;;;;;;18.86;48.01;100059.03;5114949;28;20062;-70
2023/02/21 13:14:20;;;;;;;1.77;0.90;;;;;;;18.87;48.23;100067.00;5114934;28;20494;-71
2023/02/21 13:16:48;;;;;;;2.47;1.15;;;;;;;18.89;48.07;100074.94;5115004;28;20100;-70
2023/02/21 13:19:17;;;;;;;2.58;1.23;;;;;;;18.87;48.28;100066.16;5114793;28;20399;-70
2023/02/21 13:21:59;;;;;;;3.90;1.10;;;;;;;18.85;47.99;100069.00;5114707;28;20396;-70
2023/02/21 13:24:44;;;;;;;3.42;1.38;;;;;;;18.85;47.98;100060.91;5114974;28;20039;-71
2023/02/21 13:27:42;;;;;;;2.05;1.00;;;;;;;18.91;47.93;100072.94;5114806;28;20484;-71
2023/02/21 13:30:20;;;;;;;2.20;1.23;;;;;;;18.91;47.97;100058.56;5109864;28;20044;-71
2023/02/21 13:32:54;;;;;;;2.17;1.17;;;;;;;18.94;47.88;100058.28;5113608;27;20048;-71
2023/02/21 13:35:31;;;;;;;2.13;1.13;;;;;;;18.94;47.95;100061.00;5114711;28;20039;-71
2023/02/21 13:38:01;;;;;;;1.50;0.82;;;;;;;18.95;48.20;100054.59;5114231;28;20416;-69
2023/02/21 13:40:38;;;;;;;3.20;1.02;;;;;;;18.97;47.95;100056.13;5114444;28;20040;-70
2023/02/21 13:43:12;;;;;;;1.70;1.10;;;;;;;18.95;47.92;100043.78;5114251;28;20559;-71
2023/02/21 13:45:44;;;;;;;2.60;1.20;;;;;;;18.98;48.09;100055.13;5114226;28;20055;-71
2023/02/21 13:48:30;;;;;;;3.28;1.45;;;;;;;18.97;47.91;100050.72;5114484;28;20112;-70
2023/02/21 13:51:00;;;;;;;1.42;1.10;;;;;;;18.99;47.96;100047.88;5114194;28;20431;-70
2023/02/21 13:53:32;;;;;;;1.80;1.10;;;;;;;19.04;48.07;100059.09;5114088;28;20083;-70
2023/02/21 13:56:19;;;;;;;1.60;0.98;;;;;;;19.07;48.07;100050.66;5114069;28;20092;-71
2023/02/21 13:58:48;;;;;;;1.60;1.00;;;;;;;19.09;48.25;100057.63;5113992;28;20484;-71
2023/02/21 14:01:41;;;;;;;1.75;1.00;;;;;;;19.12;48.40;100053.78;5114176;27;20047;-70
2023/02/21 14:04:59;;;;;;;2.20;1.10;;;;;;;19.16;48.14;100060.56;5113843;28;20051;-70
2023/02/21 14:07:48;;;;;;;1.98;1.13;;;;;;;19.16;48.18;100055.16;5113686;28;20047;-70
2023/02/21 14:10:25;;;;;;;1.55;1.00;;;;;;;19.18;48.31;100045.03;5113594;28;20412;-70